sensor_id;sensor_type;location;lat;lon;timestamp;temperature;humidity
32446;DHT22;18899;50.748;7.102;2023-06-22T00:02:08;21.40;99.90
32446;DHT22;18899;50.748;7.102;2023-06-22T00:04:34;21.40;99.90
32446;DHT22;18899;50.748;7.102;2023-06-22T00:06:59;21.40;99.90
32446;DHT22;18899;50.748;7.102;2023-06-22T00:09:25;21.40;99.90
32446;DHT22;18899;50.748;7.102;2023-06-22T00:11:50;21.50;99.90
32446;DHT22;18899;50.748;7.102;2023-06-22T00:14:16;21.50;99.90
32446;DHT22;18899;50.748;7.102;2023-06-22T00:16:41;21.50;99.90
32446;DHT22;18899;50.748;7.102;2023-06-22T00:19:08;21.50;99.90
32446;DHT22;18899;50.748;7.102;2023-06-22T00:21:37;21.50;99.90
32446;DHT22;18899;50.748;7.102;2023-06-22T00:24:03;21.50;99.90
32446;DHT22;18899;50.748;7.102;2023-06-22T00:26:29;21.50;99.90
32446;DHT22;18899;50.748;7.102;2023-06-22T00:28:55;21.60;99.90
32446;DHT22;18899;50.748;7.102;2023-06-22T00:31:20;21.60;99.90
32446;DHT22;18899;50.748;7.102;2023-06-22T00:33:46;21.60;99.90
32446;DHT22;18899;50.748;7.102;2023-06-22T00:36:12;21.50;99.90
32446;DHT22;18899;50.748;7.102;2023-06-22T00:38:41;21.50;99.90
32446;DHT22;18899;50.748;7.102;2023-06-22T00:41:07;21.50;99.90
32446;DHT22;18899;50.748;7.102;2023-06-22T00:43:32;21.50;99.90
32446;DHT22;18899;50.748;7.102;2023-06-22T00:45:58;21.50;99.90
32446;DHT22;18899;50.748;7.102;2023-06-22T00:48:24;21.50;99.90
32446;DHT22;18899;50.748;7.102;2023-06-22T00:50:50;21.50;99.90
32446;DHT22;18899;50.748;7.102;2023-06-22T00:53:19;21.40;99.90
32446;DHT22;18899;50.748;7.102;2023-06-22T00:55:45;21.30;99.90
32446;DHT22;18899;50.748;7.102;2023-06-22T00:58:13;21.30;99.90
32446;DHT22;18899;50.748;7.102;2023-06-22T01:00:39;21.20;99.90
32446;DHT22;18899;50.748;7.102;2023-06-22T01:03:06;21.20;99.90
32446;DHT22;18899;50.748;7.102;2023-06-22T01:05:35;21.20;99.90
32446;DHT22;18899;50.748;7.102;2023-06-22T01:13:02;21.20;99.90
32446;DHT22;18899;50.748;7.102;2023-06-22T01:15:58;21.20;99.90
32446;DHT22;18899;50.748;7.102;2023-06-22T01:18:27;21.20;99.90
32446;DHT22;18899;50.748;7.102;2023-06-22T01:20:54;21.30;99.90
32446;DHT22;18899;50.748;7.102;2023-06-22T01:23:56;21.30;99.90
32446;DHT22;18899;50.748;7.102;2023-06-22T01:26:36;21.40;99.90
32446;DHT22;18899;50.748;7.102;2023-06-22T01:29:04;21.40;99.90
32446;DHT22;18899;50.748;7.102;2023-06-22T01:31:31;21.40;99.90
32446;DHT22;18899;50.748;7.102;2023-06-22T01:34:03;21.40;99.90
32446;DHT22;18899;50.748;7.102;2023-06-22T01:36:30;21.50;99.90
32446;DHT22;18899;50.748;7.102;2023-06-22T01:38:57;21.50;99.90
32446;DHT22;18899;50.748;7.102;2023-06-22T01:41:26;21.40;99.90
32446;DHT22;18899;50.748;7.102;2023-06-22T01:43:53;21.40;99.90
32446;DHT22;18899;50.748;7.102;2023-06-22T01:46:20;21.30;99.90
32446;DHT22;18899;50.748;7.102;2023-06-22T01:48:47;21.20;99.90
32446;DHT22;18899;50.748;7.102;2023-06-22T01:51:13;21.20;99.90
32446;DHT22;18899;50.748;7.102;2023-06-22T01:53:39;21.10;99.90
32446;DHT22;18899;50.748;7.102;2023-06-22T01:56:04;21.00;99.90
32446;DHT22;18899;50.748;7.102;2023-06-22T01:58:31;20.90;99.90
32446;DHT22;18899;50.748;7.102;2023-06-22T02:01:11;20.90;99.90
32446;DHT22;18899;50.748;7.102;2023-06-22T02:03:41;21.00;99.90
32446;DHT22;18899;50.748;7.102;2023-06-22T02:06:16;21.00;99.90
32446;DHT22;18899;50.748;7.102;2023-06-22T02:08:49;21.10;99.90
32446;DHT22;18899;50.748;7.102;2023-06-22T02:11:18;21.10;99.90
32446;DHT22;18899;50.748;7.102;2023-06-22T02:13:45;21.20;99.90
32446;DHT22;18899;50.748;7.102;2023-06-22T02:16:11;21.20;99.90
32446;DHT22;18899;50.748;7.102;2023-06-22T02:18:38;21.20;99.90
32446;DHT22;18899;50.748;7.102;2023-06-22T02:21:05;21.10;99.90
32446;DHT22;18899;50.748;7.102;2023-06-22T02:23:31;21.10;99.90
32446;DHT22;18899;50.748;7.102;2023-06-22T02:26:00;21.00;99.90
32446;DHT22;18899;50.748;7.102;2023-06-22T02:28:26;21.00;99.90
32446;DHT22;18899;50.748;7.102;2023-06-22T02:30:51;21.10;99.90
32446;DHT22;18899;50.748;7.102;2023-06-22T02:33:17;21.00;99.90
32446;DHT22;18899;50.748;7.102;2023-06-22T02:35:42;21.10;99.90
32446;DHT22;18899;50.748;7.102;2023-06-22T02:38:11;21.10;99.90
32446;DHT22;18899;50.748;7.102;2023-06-22T02:40:36;21.20;99.90
32446;DHT22;18899;50.748;7.102;2023-06-22T02:43:02;21.20;99.90
32446;DHT22;18899;50.748;7.102;2023-06-22T02:45:28;21.20;99.90
32446;DHT22;18899;50.748;7.102;2023-06-22T02:47:55;21.20;99.90
32446;DHT22;18899;50.748;7.102;2023-06-22T02:50:20;21.20;99.90
32446;DHT22;18899;50.748;7.102;2023-06-22T02:52:46;21.20;99.90
32446;DHT22;18899;50.748;7.102;2023-06-22T02:55:11;21.20;99.90
32446;DHT22;18899;50.748;7.102;2023-06-22T02:57:37;21.20;99.90
32446;DHT22;18899;50.748;7.102;2023-06-22T03:00:04;21.20;99.90
32446;DHT22;18899;50.748;7.102;2023-06-22T03:02:46;21.20;99.90
32446;DHT22;18899;50.748;7.102;2023-06-22T03:05:13;21.20;99.90
32446;DHT22;18899;50.748;7.102;2023-06-22T03:07:43;21.20;99.90
32446;DHT22;18899;50.748;7.102;2023-06-22T03:10:09;21.10;99.90
32446;DHT22;18899;50.748;7.102;2023-06-22T03:12:35;21.10;99.90
32446;DHT22;18899;50.748;7.102;2023-06-22T03:15:01;21.10;99.90
32446;DHT22;18899;50.748;7.102;2023-06-22T03:17:26;21.10;99.90
32446;DHT22;18899;50.748;7.102;2023-06-22T03:19:52;21.00;99.90
32446;DHT22;18899;50.748;7.102;2023-06-22T03:22:17;21.00;99.90
32446;DHT22;18899;50.748;7.102;2023-06-22T03:24:43;21.00;99.90
32446;DHT22;18899;50.748;7.102;2023-06-22T03:27:08;21.00;99.90
32446;DHT22;18899;50.748;7.102;2023-06-22T03:29:34;21.10;99.90
32446;DHT22;18899;50.748;7.102;2023-06-22T03:32:00;21.10;99.90
32446;DHT22;18899;50.748;7.102;2023-06-22T03:34:25;21.10;99.90
32446;DHT22;18899;50.748;7.102;2023-06-22T03:36:51;21.10;99.90
32446;DHT22;18899;50.748;7.102;2023-06-22T03:39:16;21.00;99.90
32446;DHT22;18899;50.748;7.102;2023-06-22T03:41:42;21.00;99.90
32446;DHT22;18899;50.748;7.102;2023-06-22T03:44:07;21.00;99.90
32446;DHT22;18899;50.748;7.102;2023-06-22T03:46:37;21.00;99.90
32446;DHT22;18899;50.748;7.102;2023-06-22T03:49:03;21.00;99.90
32446;DHT22;18899;50.748;7.102;2023-06-22T03:51:28;21.00;99.90
32446;DHT22;18899;50.748;7.102;2023-06-22T03:53:54;21.00;99.90
32446;DHT22;18899;50.748;7.102;2023-06-22T03:56:19;20.90;99.90
32446;DHT22;18899;50.748;7.102;2023-06-22T03:58:46;20.80;99.90
32446;DHT22;18899;50.748;7.102;2023-06-22T04:01:11;20.80;99.90
32446;DHT22;18899;50.748;7.102;2023-06-22T04:03:38;20.80;99.90
32446;DHT22;18899;50.748;7.102;2023-06-22T04:06:03;20.80;99.90
32446;DHT22;18899;50.748;7.102;2023-06-22T04:08:29;20.80;99.90
32446;DHT22;18899;50.748;7.102;2023-06-22T04:10:55;20.90;99.90
32446;DHT22;18899;50.748;7.102;2023-06-22T04:13:20;21.00;99.90
32446;DHT22;18899;50.748;7.102;2023-06-22T04:15:46;21.10;99.90
32446;DHT22;18899;50.748;7.102;2023-06-22T04:18:11;21.20;99.90
32446;DHT22;18899;50.748;7.102;2023-06-22T04:20:37;21.30;99.90
32446;DHT22;18899;50.748;7.102;2023-06-22T04:23:02;21.20;99.90
32446;DHT22;18899;50.748;7.102;2023-06-22T04:25:28;21.30;99.90
32446;DHT22;18899;50.748;7.102;2023-06-22T04:27:53;21.30;99.90
32446;DHT22;18899;50.748;7.102;2023-06-22T04:30:19;21.20;99.90
32446;DHT22;18899;50.748;7.102;2023-06-22T04:32:45;21.30;99.90
32446;DHT22;18899;50.748;7.102;2023-06-22T04:35:11;21.40;99.90
32446;DHT22;18899;50.748;7.102;2023-06-22T04:37:36;21.30;99.90
32446;DHT22;18899;50.748;7.102;2023-06-22T04:40:02;21.30;99.90
32446;DHT22;18899;50.748;7.102;2023-06-22T04:42:30;21.30;99.90
32446;DHT22;18899;50.748;7.102;2023-06-22T04:44:56;21.30;99.90
32446;DHT22;18899;50.748;7.102;2023-06-22T04:47:21;21.30;99.90
32446;DHT22;18899;50.748;7.102;2023-06-22T04:49:47;21.50;99.90
32446;DHT22;18899;50.748;7.102;2023-06-22T04:52:13;21.50;99.90
32446;DHT22;18899;50.748;7.102;2023-06-22T04:54:40;21.50;99.90
32446;DHT22;18899;50.748;7.102;2023-06-22T04:57:14;21.50;99.90
32446;DHT22;18899;50.748;7.102;2023-06-22T04:59:40;21.50;99.90
32446;DHT22;18899;50.748;7.102;2023-06-22T05:02:07;21.50;99.90
32446;DHT22;18899;50.748;7.102;2023-06-22T05:04:33;21.50;99.90
32446;DHT22;18899;50.748;7.102;2023-06-22T05:07:01;21.60;99.90
32446;DHT22;18899;50.748;7.102;2023-06-22T05:09:27;21.70;99.90
32446;DHT22;18899;50.748;7.102;2023-06-22T05:11:53;21.90;99.90
32446;DHT22;18899;50.748;7.102;2023-06-22T05:14:19;22.00;99.90
32446;DHT22;18899;50.748;7.102;2023-06-22T05:16:45;22.10;99.90
32446;DHT22;18899;50.748;7.102;2023-06-22T05:19:11;22.30;99.90
32446;DHT22;18899;50.748;7.102;2023-06-22T05:21:37;22.50;99.90
32446;DHT22;18899;50.748;7.102;2023-06-22T05:24:02;22.70;99.90
32446;DHT22;18899;50.748;7.102;2023-06-22T05:26:29;22.90;99.90
32446;DHT22;18899;50.748;7.102;2023-06-22T05:28:55;23.00;99.90
32446;DHT22;18899;50.748;7.102;2023-06-22T05:31:22;23.40;99.90
32446;DHT22;18899;50.748;7.102;2023-06-22T05:33:48;23.90;99.90
32446;DHT22;18899;50.748;7.102;2023-06-22T05:36:14;24.70;99.90
32446;DHT22;18899;50.748;7.102;2023-06-22T05:38:41;25.50;99.90
32446;DHT22;18899;50.748;7.102;2023-06-22T05:41:07;26.10;99.90
32446;DHT22;18899;50.748;7.102;2023-06-22T05:43:33;26.20;99.90
32446;DHT22;18899;50.748;7.102;2023-06-22T05:46:00;26.20;99.90
32446;DHT22;18899;50.748;7.102;2023-06-22T05:48:26;26.20;99.90
32446;DHT22;18899;50.748;7.102;2023-06-22T05:50:52;26.10;99.90
32446;DHT22;18899;50.748;7.102;2023-06-22T05:53:18;26.00;99.90
32446;DHT22;18899;50.748;7.102;2023-06-22T05:55:43;25.60;99.90
32446;DHT22;18899;50.748;7.102;2023-06-22T05:58:09;25.50;99.90
32446;DHT22;18899;50.748;7.102;2023-06-22T06:00:35;25.20;99.90
32446;DHT22;18899;50.748;7.102;2023-06-22T06:03:00;25.10;99.90
32446;DHT22;18899;50.748;7.102;2023-06-22T06:05:30;24.90;99.90
32446;DHT22;18899;50.748;7.102;2023-06-22T06:07:56;24.50;99.90
32446;DHT22;18899;50.748;7.102;2023-06-22T06:10:21;24.00;99.90
32446;DHT22;18899;50.748;7.102;2023-06-22T06:12:47;23.80;99.90
32446;DHT22;18899;50.748;7.102;2023-06-22T06:15:12;23.70;99.90
32446;DHT22;18899;50.748;7.102;2023-06-22T06:20:13;23.60;99.90
32446;DHT22;18899;50.748;7.102;2023-06-22T06:22:38;23.70;99.90
32446;DHT22;18899;50.748;7.102;2023-06-22T06:25:05;23.80;99.90
32446;DHT22;18899;50.748;7.102;2023-06-22T06:27:30;23.60;99.90
32446;DHT22;18899;50.748;7.102;2023-06-22T06:29:56;23.50;99.90
32446;DHT22;18899;50.748;7.102;2023-06-22T06:32:22;23.30;99.90
32446;DHT22;18899;50.748;7.102;2023-06-22T06:34:47;23.30;99.90
32446;DHT22;18899;50.748;7.102;2023-06-22T06:37:13;23.40;99.90
32446;DHT22;18899;50.748;7.102;2023-06-22T06:39:39;23.30;99.90
32446;DHT22;18899;50.748;7.102;2023-06-22T06:42:05;23.30;99.90
32446;DHT22;18899;50.748;7.102;2023-06-22T06:44:30;23.20;99.90
32446;DHT22;18899;50.748;7.102;2023-06-22T06:46:56;23.20;99.90
32446;DHT22;18899;50.748;7.102;2023-06-22T06:49:21;23.30;99.90
32446;DHT22;18899;50.748;7.102;2023-06-22T06:51:47;23.60;99.90
32446;DHT22;18899;50.748;7.102;2023-06-22T06:54:12;23.70;99.90
32446;DHT22;18899;50.748;7.102;2023-06-22T06:56:38;23.90;99.90
32446;DHT22;18899;50.748;7.102;2023-06-22T06:59:03;24.20;99.90
32446;DHT22;18899;50.748;7.102;2023-06-22T07:01:29;24.40;99.90
32446;DHT22;18899;50.748;7.102;2023-06-22T07:03:59;24.50;99.90
32446;DHT22;18899;50.748;7.102;2023-06-22T07:06:25;24.60;99.90
32446;DHT22;18899;50.748;7.102;2023-06-22T07:08:57;24.40;99.90
32446;DHT22;18899;50.748;7.102;2023-06-22T07:11:22;24.50;99.90
32446;DHT22;18899;50.748;7.102;2023-06-22T07:13:48;24.70;99.90
32446;DHT22;18899;50.748;7.102;2023-06-22T07:16:13;24.70;99.90
32446;DHT22;18899;50.748;7.102;2023-06-22T07:18:40;24.80;99.90
32446;DHT22;18899;50.748;7.102;2023-06-22T07:21:05;24.80;99.90
32446;DHT22;18899;50.748;7.102;2023-06-22T07:23:32;24.90;99.90
32446;DHT22;18899;50.748;7.102;2023-06-22T07:25:58;25.20;99.90
32446;DHT22;18899;50.748;7.102;2023-06-22T07:28:27;25.20;99.90
32446;DHT22;18899;50.748;7.102;2023-06-22T07:30:53;25.30;99.90
32446;DHT22;18899;50.748;7.102;2023-06-22T07:33:18;25.70;99.90
32446;DHT22;18899;50.748;7.102;2023-06-22T07:35:44;26.00;99.90
32446;DHT22;18899;50.748;7.102;2023-06-22T07:38:10;27.10;99.90
32446;DHT22;18899;50.748;7.102;2023-06-22T07:40:36;28.10;99.90
32446;DHT22;18899;50.748;7.102;2023-06-22T07:43:02;28.70;99.90
32446;DHT22;18899;50.748;7.102;2023-06-22T07:45:29;29.00;99.90
32446;DHT22;18899;50.748;7.102;2023-06-22T07:47:54;29.10;99.90
32446;DHT22;18899;50.748;7.102;2023-06-22T07:50:20;28.90;99.90
32446;DHT22;18899;50.748;7.102;2023-06-22T07:52:45;29.10;99.90
32446;DHT22;18899;50.748;7.102;2023-06-22T07:55:12;29.30;99.90
32446;DHT22;18899;50.748;7.102;2023-06-22T07:57:38;30.40;99.90
32446;DHT22;18899;50.748;7.102;2023-06-22T08:00:05;30.50;99.40
32446;DHT22;18899;50.748;7.102;2023-06-22T08:02:42;31.30;96.90
32446;DHT22;18899;50.748;7.102;2023-06-22T08:05:08;31.70;93.10
32446;DHT22;18899;50.748;7.102;2023-06-22T08:07:35;31.40;92.50
32446;DHT22;18899;50.748;7.102;2023-06-22T08:10:03;31.10;93.30
32446;DHT22;18899;50.748;7.102;2023-06-22T08:12:29;31.40;93.30
32446;DHT22;18899;50.748;7.102;2023-06-22T08:14:55;31.70;90.60
32446;DHT22;18899;50.748;7.102;2023-06-22T08:17:22;31.80;90.50
32446;DHT22;18899;50.748;7.102;2023-06-22T08:19:48;31.70;90.70
32446;DHT22;18899;50.748;7.102;2023-06-22T08:22:16;32.20;88.20
32446;DHT22;18899;50.748;7.102;2023-06-22T08:24:41;31.90;88.20
32446;DHT22;18899;50.748;7.102;2023-06-22T08:27:07;31.80;87.60
32446;DHT22;18899;50.748;7.102;2023-06-22T08:29:40;32.00;88.70
32446;DHT22;18899;50.748;7.102;2023-06-22T08:32:11;32.00;87.70
32446;DHT22;18899;50.748;7.102;2023-06-22T08:34:37;31.70;90.30
32446;DHT22;18899;50.748;7.102;2023-06-22T08:37:08;32.00;87.50
32446;DHT22;18899;50.748;7.102;2023-06-22T08:39:33;32.40;85.60
32446;DHT22;18899;50.748;7.102;2023-06-22T08:41:59;32.30;86.40
32446;DHT22;18899;50.748;7.102;2023-06-22T08:44:25;31.50;89.30
32446;DHT22;18899;50.748;7.102;2023-06-22T08:46:50;31.00;90.40
32446;DHT22;18899;50.748;7.102;2023-06-22T08:49:16;30.90;92.30
32446;DHT22;18899;50.748;7.102;2023-06-22T08:51:41;31.10;91.60
32446;DHT22;18899;50.748;7.102;2023-06-22T08:54:07;30.90;91.80
32446;DHT22;18899;50.748;7.102;2023-06-22T08:56:32;31.20;91.10
32446;DHT22;18899;50.748;7.102;2023-06-22T08:58:58;31.00;90.60
32446;DHT22;18899;50.748;7.102;2023-06-22T09:01:24;30.30;92.40
32446;DHT22;18899;50.748;7.102;2023-06-22T09:03:49;29.50;95.30
32446;DHT22;18899;50.748;7.102;2023-06-22T09:06:20;29.20;97.40
32446;DHT22;18899;50.748;7.102;2023-06-22T09:08:47;29.10;99.90
32446;DHT22;18899;50.748;7.102;2023-06-22T09:11:12;28.80;99.90
32446;DHT22;18899;50.748;7.102;2023-06-22T09:13:38;28.70;99.90
32446;DHT22;18899;50.748;7.102;2023-06-22T09:16:04;28.70;99.90
32446;DHT22;18899;50.748;7.102;2023-06-22T09:18:29;28.90;99.90
32446;DHT22;18899;50.748;7.102;2023-06-22T09:20:56;28.90;99.90
32446;DHT22;18899;50.748;7.102;2023-06-22T09:23:22;28.90;99.90
32446;DHT22;18899;50.748;7.102;2023-06-22T09:25:47;29.00;99.90
32446;DHT22;18899;50.748;7.102;2023-06-22T09:28:14;29.10;99.90
32446;DHT22;18899;50.748;7.102;2023-06-22T09:30:39;29.30;99.90
32446;DHT22;18899;50.748;7.102;2023-06-22T09:33:05;29.50;99.90
32446;DHT22;18899;50.748;7.102;2023-06-22T09:35:30;30.00;99.90
32446;DHT22;18899;50.748;7.102;2023-06-22T09:37:56;30.30;98.50
32446;DHT22;18899;50.748;7.102;2023-06-22T09:40:21;30.60;95.70
32446;DHT22;18899;50.748;7.102;2023-06-22T09:42:47;30.90;94.80
32446;DHT22;18899;50.748;7.102;2023-06-22T09:45:12;30.60;96.70
32446;DHT22;18899;50.748;7.102;2023-06-22T09:47:38;30.00;97.20
32446;DHT22;18899;50.748;7.102;2023-06-22T09:50:05;29.90;97.10
32446;DHT22;18899;50.748;7.102;2023-06-22T09:52:30;29.70;98.10
32446;DHT22;18899;50.748;7.102;2023-06-22T09:54:56;29.30;98.50
32446;DHT22;18899;50.748;7.102;2023-06-22T09:57:21;28.80;99.90
32446;DHT22;18899;50.748;7.102;2023-06-22T09:59:47;28.20;99.90
32446;DHT22;18899;50.748;7.102;2023-06-22T10:02:12;27.80;99.90
32446;DHT22;18899;50.748;7.102;2023-06-22T10:04:38;27.70;99.90
32446;DHT22;18899;50.748;7.102;2023-06-22T10:07:05;27.50;99.90
32446;DHT22;18899;50.748;7.102;2023-06-22T10:09:31;27.30;99.90
32446;DHT22;18899;50.748;7.102;2023-06-22T10:11:57;27.10;99.90
32446;DHT22;18899;50.748;7.102;2023-06-22T10:14:22;26.90;99.90
32446;DHT22;18899;50.748;7.102;2023-06-22T10:16:51;26.80;99.90
32446;DHT22;18899;50.748;7.102;2023-06-22T10:19:16;27.00;99.90
32446;DHT22;18899;50.748;7.102;2023-06-22T10:21:42;26.90;99.90
32446;DHT22;18899;50.748;7.102;2023-06-22T10:24:07;26.70;99.90
32446;DHT22;18899;50.748;7.102;2023-06-22T10:26:34;26.60;99.90
32446;DHT22;18899;50.748;7.102;2023-06-22T10:29:01;26.50;99.90
32446;DHT22;18899;50.748;7.102;2023-06-22T10:31:27;26.30;99.90
32446;DHT22;18899;50.748;7.102;2023-06-22T10:33:54;26.20;99.90
32446;DHT22;18899;50.748;7.102;2023-06-22T10:36:20;26.00;99.90
32446;DHT22;18899;50.748;7.102;2023-06-22T10:38:45;25.80;99.90
32446;DHT22;18899;50.748;7.102;2023-06-22T10:41:12;25.50;99.90
32446;DHT22;18899;50.748;7.102;2023-06-22T10:43:38;25.30;99.90
32446;DHT22;18899;50.748;7.102;2023-06-22T10:46:03;25.10;99.90
32446;DHT22;18899;50.748;7.102;2023-06-22T10:48:29;24.80;99.90
32446;DHT22;18899;50.748;7.102;2023-06-22T10:50:55;24.40;99.90
32446;DHT22;18899;50.748;7.102;2023-06-22T10:53:20;24.00;99.90
32446;DHT22;18899;50.748;7.102;2023-06-22T10:55:47;23.60;99.90
32446;DHT22;18899;50.748;7.102;2023-06-22T10:58:12;23.40;99.90
32446;DHT22;18899;50.748;7.102;2023-06-22T11:00:38;23.10;99.90
32446;DHT22;18899;50.748;7.102;2023-06-22T11:03:03;23.00;99.90
32446;DHT22;18899;50.748;7.102;2023-06-22T11:05:29;22.90;99.90
32446;DHT22;18899;50.748;7.102;2023-06-22T11:07:54;22.70;99.90
32446;DHT22;18899;50.748;7.102;2023-06-22T11:10:20;22.70;99.90
32446;DHT22;18899;50.748;7.102;2023-06-22T11:12:45;22.60;99.90
32446;DHT22;18899;50.748;7.102;2023-06-22T11:15:11;22.60;99.90
32446;DHT22;18899;50.748;7.102;2023-06-22T11:17:37;22.60;99.90
32446;DHT22;18899;50.748;7.102;2023-06-22T11:20:02;22.60;99.90
32446;DHT22;18899;50.748;7.102;2023-06-22T11:22:35;22.40;99.90
32446;DHT22;18899;50.748;7.102;2023-06-22T11:25:00;22.40;99.90
32446;DHT22;18899;50.748;7.102;2023-06-22T11:27:26;22.40;99.90
32446;DHT22;18899;50.748;7.102;2023-06-22T11:29:51;22.50;99.90
32446;DHT22;18899;50.748;7.102;2023-06-22T11:32:18;22.40;99.90
32446;DHT22;18899;50.748;7.102;2023-06-22T11:34:44;22.50;99.90
32446;DHT22;18899;50.748;7.102;2023-06-22T11:37:09;22.60;99.90
32446;DHT22;18899;50.748;7.102;2023-06-22T11:39:35;22.70;99.90
32446;DHT22;18899;50.748;7.102;2023-06-22T11:42:00;22.80;99.90
32446;DHT22;18899;50.748;7.102;2023-06-22T11:44:26;23.00;99.90
32446;DHT22;18899;50.748;7.102;2023-06-22T11:46:51;23.30;99.90
32446;DHT22;18899;50.748;7.102;2023-06-22T11:49:17;23.70;99.90
32446;DHT22;18899;50.748;7.102;2023-06-22T11:51:42;24.20;99.90
32446;DHT22;18899;50.748;7.102;2023-06-22T11:54:08;24.70;99.90
32446;DHT22;18899;50.748;7.102;2023-06-22T11:56:34;25.00;99.90
32446;DHT22;18899;50.748;7.102;2023-06-22T11:58:59;24.80;99.90
32446;DHT22;18899;50.748;7.102;2023-06-22T12:01:25;24.80;99.90
32446;DHT22;18899;50.748;7.102;2023-06-22T12:03:50;24.80;99.90
32446;DHT22;18899;50.748;7.102;2023-06-22T12:06:16;24.80;99.90
32446;DHT22;18899;50.748;7.102;2023-06-22T12:08:41;24.70;99.90
32446;DHT22;18899;50.748;7.102;2023-06-22T12:11:07;24.50;99.90
32446;DHT22;18899;50.748;7.102;2023-06-22T12:13:32;24.40;99.90
32446;DHT22;18899;50.748;7.102;2023-06-22T12:15:58;24.30;99.90
32446;DHT22;18899;50.748;7.102;2023-06-22T12:18:24;24.30;99.90
32446;DHT22;18899;50.748;7.102;2023-06-22T12:20:49;24.30;99.90
32446;DHT22;18899;50.748;7.102;2023-06-22T12:23:15;24.10;99.90
32446;DHT22;18899;50.748;7.102;2023-06-22T12:25:41;24.10;99.90
32446;DHT22;18899;50.748;7.102;2023-06-22T12:28:06;24.10;99.90
32446;DHT22;18899;50.748;7.102;2023-06-22T12:30:34;24.10;99.90
32446;DHT22;18899;50.748;7.102;2023-06-22T12:33:00;24.20;99.90
32446;DHT22;18899;50.748;7.102;2023-06-22T12:35:26;24.50;99.90
32446;DHT22;18899;50.748;7.102;2023-06-22T12:37:51;24.70;99.90
32446;DHT22;18899;50.748;7.102;2023-06-22T12:40:18;24.80;99.90
32446;DHT22;18899;50.748;7.102;2023-06-22T12:42:45;25.00;99.90
32446;DHT22;18899;50.748;7.102;2023-06-22T12:45:10;25.20;99.90
32446;DHT22;18899;50.748;7.102;2023-06-22T12:47:36;25.30;99.90
32446;DHT22;18899;50.748;7.102;2023-06-22T12:50:01;25.30;99.90
32446;DHT22;18899;50.748;7.102;2023-06-22T12:52:27;25.40;99.90
32446;DHT22;18899;50.748;7.102;2023-06-22T12:54:53;25.40;99.90
32446;DHT22;18899;50.748;7.102;2023-06-22T12:57:19;25.50;99.90
32446;DHT22;18899;50.748;7.102;2023-06-22T12:59:45;25.70;99.90
32446;DHT22;18899;50.748;7.102;2023-06-22T13:02:10;25.90;99.90
32446;DHT22;18899;50.748;7.102;2023-06-22T13:04:36;26.10;99.90
32446;DHT22;18899;50.748;7.102;2023-06-22T13:07:02;26.30;99.90
32446;DHT22;18899;50.748;7.102;2023-06-22T13:09:27;26.40;99.90
32446;DHT22;18899;50.748;7.102;2023-06-22T13:11:53;26.20;99.90
32446;DHT22;18899;50.748;7.102;2023-06-22T13:14:19;26.40;99.90
32446;DHT22;18899;50.748;7.102;2023-06-22T13:16:44;26.30;99.90
32446;DHT22;18899;50.748;7.102;2023-06-22T13:19:10;26.50;99.90
32446;DHT22;18899;50.748;7.102;2023-06-22T13:21:35;26.60;99.90
32446;DHT22;18899;50.748;7.102;2023-06-22T13:24:01;26.70;99.90
32446;DHT22;18899;50.748;7.102;2023-06-22T13:26:27;26.60;99.90
32446;DHT22;18899;50.748;7.102;2023-06-22T13:28:54;26.40;99.90
32446;DHT22;18899;50.748;7.102;2023-06-22T13:31:19;26.10;99.90
32446;DHT22;18899;50.748;7.102;2023-06-22T13:33:45;25.90;99.90
32446;DHT22;18899;50.748;7.102;2023-06-22T13:36:13;26.10;99.90
32446;DHT22;18899;50.748;7.102;2023-06-22T13:38:38;26.10;99.90
32446;DHT22;18899;50.748;7.102;2023-06-22T13:41:05;26.20;99.90
32446;DHT22;18899;50.748;7.102;2023-06-22T13:43:31;26.20;99.90
32446;DHT22;18899;50.748;7.102;2023-06-22T13:45:57;26.20;99.90
32446;DHT22;18899;50.748;7.102;2023-06-22T13:48:22;26.30;99.90
32446;DHT22;18899;50.748;7.102;2023-06-22T13:50:49;26.30;99.90
32446;DHT22;18899;50.748;7.102;2023-06-22T13:53:14;26.30;99.90
32446;DHT22;18899;50.748;7.102;2023-06-22T13:55:40;26.30;99.90
32446;DHT22;18899;50.748;7.102;2023-06-22T13:58:05;26.30;99.90
32446;DHT22;18899;50.748;7.102;2023-06-22T14:00:31;26.40;99.90
32446;DHT22;18899;50.748;7.102;2023-06-22T14:02:56;26.40;99.90
32446;DHT22;18899;50.748;7.102;2023-06-22T14:05:22;26.40;99.90
32446;DHT22;18899;50.748;7.102;2023-06-22T14:07:47;26.50;99.90
32446;DHT22;18899;50.748;7.102;2023-06-22T14:10:13;26.50;99.90
32446;DHT22;18899;50.748;7.102;2023-06-22T14:12:38;26.50;99.90
32446;DHT22;18899;50.748;7.102;2023-06-22T14:15:04;26.60;99.90
32446;DHT22;18899;50.748;7.102;2023-06-22T14:17:30;26.40;99.90
32446;DHT22;18899;50.748;7.102;2023-06-22T14:19:56;26.30;99.90
32446;DHT22;18899;50.748;7.102;2023-06-22T14:22:22;26.20;99.90
32446;DHT22;18899;50.748;7.102;2023-06-22T14:24:48;26.10;99.90
32446;DHT22;18899;50.748;7.102;2023-06-22T14:27:15;26.20;99.90
32446;DHT22;18899;50.748;7.102;2023-06-22T14:29:40;26.00;99.90
32446;DHT22;18899;50.748;7.102;2023-06-22T14:32:07;25.80;99.90
32446;DHT22;18899;50.748;7.102;2023-06-22T14:34:33;25.50;99.90
32446;DHT22;18899;50.748;7.102;2023-06-22T14:37:01;25.20;99.90
32446;DHT22;18899;50.748;7.102;2023-06-22T14:39:27;25.00;99.90
32446;DHT22;18899;50.748;7.102;2023-06-22T14:41:53;24.60;99.90
32446;DHT22;18899;50.748;7.102;2023-06-22T14:44:18;24.00;99.90
32446;DHT22;18899;50.748;7.102;2023-06-22T14:46:44;23.50;99.90
32446;DHT22;18899;50.748;7.102;2023-06-22T14:49:09;23.20;99.90
32446;DHT22;18899;50.748;7.102;2023-06-22T14:51:35;23.00;99.90
32446;DHT22;18899;50.748;7.102;2023-06-22T14:54:00;22.80;99.90
32446;DHT22;18899;50.748;7.102;2023-06-22T14:56:26;22.60;99.90
32446;DHT22;18899;50.748;7.102;2023-06-22T14:58:51;22.40;99.90
32446;DHT22;18899;50.748;7.102;2023-06-22T15:01:17;22.30;99.90
32446;DHT22;18899;50.748;7.102;2023-06-22T15:03:43;22.30;99.90
32446;DHT22;18899;50.748;7.102;2023-06-22T15:06:09;22.10;99.90
32446;DHT22;18899;50.748;7.102;2023-06-22T15:08:39;22.00;99.90
32446;DHT22;18899;50.748;7.102;2023-06-22T15:11:05;21.90;99.90
32446;DHT22;18899;50.748;7.102;2023-06-22T15:13:31;21.90;99.90
32446;DHT22;18899;50.748;7.102;2023-06-22T15:16:02;21.90;99.90
32446;DHT22;18899;50.748;7.102;2023-06-22T15:18:29;21.70;99.90
32446;DHT22;18899;50.748;7.102;2023-06-22T15:20:54;21.50;99.90
32446;DHT22;18899;50.748;7.102;2023-06-22T15:23:20;21.40;99.90
32446;DHT22;18899;50.748;7.102;2023-06-22T15:25:46;21.40;99.90
32446;DHT22;18899;50.748;7.102;2023-06-22T15:28:12;21.40;99.90
32446;DHT22;18899;50.748;7.102;2023-06-22T15:30:37;21.30;99.90
32446;DHT22;18899;50.748;7.102;2023-06-22T15:33:03;21.30;99.90